<?xml version="1.0" encoding="UTF-8" standalone="no" ?>
<gpx xmlns="http://www.topografix.com/GPX/1/1" xmlns:xsi="http://www.w3.org/2001/XMLSchema-instance" xsi:schemaLocation="http://www.topografix.com/GPX/1/1 http://www.topografix.com/GPX/1/1/gpx.xsd" version="1.1" creator="VisuGPX - https://www.visugpx.com">
  <metadata>
    <name>Toutes traces 4x4 Côté Brindas</name>
  </metadata>
  <trk>
    <name><![CDATA[Les Verchères - Pollionnay]]></name>
    <extensions>
      <line xmlns="http://www.topografix.com/GPX/gpx_style/0/2">
        <color>008888</color>
        <width>4</width>
      </line>
    </extensions>
    <trkseg>
      <trkpt lat="45.74" lon="4.59803">
        <ele>829.872</ele>
        <time>2021-05-25T18:49:57Z</time>
      </trkpt>
      <trkpt lat="45.74" lon="4.59803">
        <ele>829.872</ele>
        <time>2021-05-25T18:49:57Z</time>
      </trkpt>
      <trkpt lat="45.74105" lon="4.59705">
        <ele>829.813</ele>
        <time>2021-05-25T18:50:38Z</time>
      </trkpt>
      <trkpt lat="45.74102" lon="4.59842">
        <ele>821.814</ele>
        <time>2021-05-25T18:51:00Z</time>
      </trkpt>
      <trkpt lat="45.74073" lon="4.59906">
        <ele>827.408</ele>
        <time>2021-05-25T18:51:12Z</time>
      </trkpt>
      <trkpt lat="45.74063" lon="4.59978">
        <ele>829.134</ele>
        <time>2021-05-25T18:51:27Z</time>
      </trkpt>
      <trkpt lat="45.741" lon="4.60254">
        <ele>823.271</ele>
        <time>2021-05-25T18:52:17Z</time>
      </trkpt>
      <trkpt lat="45.74058" lon="4.60355">
        <ele>825.077</ele>
        <time>2021-05-25T18:52:40Z</time>
      </trkpt>
      <trkpt lat="45.74098" lon="4.60377">
        <ele>816.421</ele>
        <time>2021-05-25T18:53:00Z</time>
      </trkpt>
      <trkpt lat="45.74124" lon="4.60376">
        <ele>808.915</ele>
        <time>2021-05-25T18:53:18Z</time>
      </trkpt>
      <trkpt lat="45.74234" lon="4.60548">
        <ele>810.19</ele>
        <time>2021-05-25T18:54:52Z</time>
      </trkpt>
      <trkpt lat="45.74313" lon="4.60569">
        <ele>794.698</ele>
        <time>2021-05-25T18:55:50Z</time>
      </trkpt>
      <trkpt lat="45.74516" lon="4.60738">
        <ele>760.191</ele>
        <time>2021-05-25T18:57:26Z</time>
      </trkpt>
      <trkpt lat="45.74658" lon="4.61011">
        <ele>755.619</ele>
        <time>2021-05-25T18:58:07Z</time>
      </trkpt>
      <trkpt lat="45.74759" lon="4.61133">
        <ele>765.009</ele>
        <time>2021-05-25T18:58:22Z</time>
      </trkpt>
      <trkpt lat="45.74804" lon="4.61085">
        <ele>763.519</ele>
        <time>2021-05-25T18:58:35Z</time>
      </trkpt>
      <trkpt lat="45.7493" lon="4.60753">
        <ele>727.208</ele>
        <time>2021-05-25T19:00:39Z</time>
      </trkpt>
      <trkpt lat="45.75001" lon="4.60782">
        <ele>725.388</ele>
        <time>2021-05-25T19:00:57Z</time>
      </trkpt>
      <trkpt lat="45.75173" lon="4.60784">
        <ele>731.015</ele>
        <time>2021-05-25T19:01:20Z</time>
      </trkpt>
      <trkpt lat="45.75207" lon="4.60799">
        <ele>732.421</ele>
        <time>2021-05-25T19:01:27Z</time>
      </trkpt>
      <trkpt lat="45.75331" lon="4.60999">
        <ele>736.715</ele>
        <time>2021-05-25T19:01:53Z</time>
      </trkpt>
      <trkpt lat="45.75435" lon="4.61032">
        <ele>725.789</ele>
        <time>2021-05-25T19:02:29Z</time>
      </trkpt>
      <trkpt lat="45.75538" lon="4.61108">
        <ele>736.244</ele>
        <time>2021-05-25T19:02:50Z</time>
      </trkpt>
      <trkpt lat="45.75621" lon="4.61215">
        <ele>740.382</ele>
        <time>2021-05-25T19:03:07Z</time>
      </trkpt>
      <trkpt lat="45.75646" lon="4.61227">
        <ele>740.535</ele>
        <time>2021-05-25T19:03:23Z</time>
      </trkpt>
      <trkpt lat="45.7571" lon="4.61322">
        <ele>746.343</ele>
        <time>2021-05-25T19:04:20Z</time>
      </trkpt>
      <trkpt lat="45.75724" lon="4.61359">
        <ele>748.564</ele>
        <time>2021-05-25T19:04:33Z</time>
      </trkpt>
      <trkpt lat="45.75685" lon="4.6146">
        <ele>763.31</ele>
        <time>2021-05-25T19:04:59Z</time>
      </trkpt>
      <trkpt lat="45.75634" lon="4.61399">
        <ele>774.308</ele>
        <time>2021-05-25T19:05:29Z</time>
      </trkpt>
      <trkpt lat="45.75587" lon="4.61401">
        <ele>782.231</ele>
        <time>2021-05-25T19:05:50Z</time>
      </trkpt>
      <trkpt lat="45.75624" lon="4.61567">
        <ele>790.948</ele>
        <time>2021-05-25T19:06:19Z</time>
      </trkpt>
      <trkpt lat="45.75623" lon="4.6174">
        <ele>796.064</ele>
        <time>2021-05-25T19:06:27Z</time>
      </trkpt>
      <trkpt lat="45.75644" lon="4.61815">
        <ele>795.948</ele>
        <time>2021-05-25T19:06:31Z</time>
      </trkpt>
      <trkpt lat="45.75822" lon="4.6216">
        <ele>796.322</ele>
        <time>2021-05-25T19:06:51Z</time>
      </trkpt>
      <trkpt lat="45.75951" lon="4.62285">
        <ele>796.177</ele>
        <time>2021-05-25T19:07:02Z</time>
      </trkpt>
      <trkpt lat="45.76023" lon="4.62406">
        <ele>792.875</ele>
        <time>2021-05-25T19:07:08Z</time>
      </trkpt>
      <trkpt lat="45.76178" lon="4.62606">
        <ele>789.098</ele>
        <time>2021-05-25T19:07:17Z</time>
      </trkpt>
      <trkpt lat="45.76228" lon="4.62647">
        <ele>781.928</ele>
        <time>2021-05-25T19:07:20Z</time>
      </trkpt>
      <trkpt lat="45.76289" lon="4.62662">
        <ele>772.989</ele>
        <time>2021-05-25T19:07:24Z</time>
      </trkpt>
      <trkpt lat="45.76306" lon="4.62687">
        <ele>767.817</ele>
        <time>2021-05-25T19:07:26Z</time>
      </trkpt>
      <trkpt lat="45.76299" lon="4.62802">
        <ele>763.908</ele>
        <time>2021-05-25T19:07:31Z</time>
      </trkpt>
      <trkpt lat="45.76229" lon="4.63158">
        <ele>758.769</ele>
        <time>2021-05-25T19:07:44Z</time>
      </trkpt>
      <trkpt lat="45.76237" lon="4.63282">
        <ele>744.166</ele>
        <time>2021-05-25T19:07:50Z</time>
      </trkpt>
      <trkpt lat="45.76222" lon="4.63329">
        <ele>730.192</ele>
        <time>2021-05-25T19:08:04Z</time>
      </trkpt>
      <trkpt lat="45.76214" lon="4.635">
        <ele>714.656</ele>
        <time>2021-05-25T19:08:41Z</time>
      </trkpt>
      <trkpt lat="45.7624" lon="4.6371">
        <ele>694.38</ele>
        <time>2021-05-25T19:09:16Z</time>
      </trkpt>
      <trkpt lat="45.76273" lon="4.63818">
        <ele>679.155</ele>
        <time>2021-05-25T19:09:38Z</time>
      </trkpt>
      <trkpt lat="45.76305" lon="4.6387">
        <ele>670.983</ele>
        <time>2021-05-25T19:09:57Z</time>
      </trkpt>
      <trkpt lat="45.76345" lon="4.64137">
        <ele>635.786</ele>
        <time>2021-05-25T19:10:36Z</time>
      </trkpt>
      <trkpt lat="45.76391" lon="4.6423">
        <ele>623.022</ele>
        <time>2021-05-25T19:11:06Z</time>
      </trkpt>
      <trkpt lat="45.76391" lon="4.64262">
        <ele>620.062</ele>
        <time>2021-05-25T19:11:11Z</time>
      </trkpt>
      <trkpt lat="45.76519" lon="4.6436">
        <ele>590.708</ele>
        <time>2021-05-25T19:11:33Z</time>
      </trkpt>
      <trkpt lat="45.76546" lon="4.64432">
        <ele>576.408</ele>
        <time>2021-05-25T19:11:47Z</time>
      </trkpt>
      <trkpt lat="45.76639" lon="4.6479">
        <ele>547.179</ele>
        <time>2021-05-25T19:12:35Z</time>
      </trkpt>
      <trkpt lat="45.76658" lon="4.65062">
        <ele>521.116</ele>
        <time>2021-05-25T19:13:19Z</time>
      </trkpt>
    </trkseg>
  </trk>
</gpx>